Time;durP1;ratioP1;P1;durP2;ratioP2;P2;SDS_P1;SDS_P2;PMS_P1;PMS_P2;Temp;Humidity;BMP_temperature;BMP_pressure;BME280_temperature;BME280_humidity;BME280_pressure;Samples;Min_cycle;Max_cycle;Signal;HPM_P1;HPM_P2
2023/06/14 00:00:53;;;;;;;9.63;4.50;;;;;;;;;;4991295;28;20041;-73
2023/06/14 00:03:21;;;;;;;7.13;4.28;;;;;;;;;;4987435;28;20085;-74
2023/06/14 00:05:48;;;;;;;10.40;4.68;;;;;;;;;;4990526;28;20511;-74
2023/06/14 00:08:14;;;;;;;11.32;5.28;;;;;;;;;;4988965;28;20026;-73
2023/06/14 00:10:41;;;;;;;9.10;5.00;;;;;;;;;;4987927;28;20023;-72
2023/06/14 00:13:08;;;;;;;12.07;5.07;;;;;;;;;;4990723;28;20019;-72
2023/06/14 00:15:35;;;;;;;8.95;5.00;;;;;;;;;;4989248;28;20082;-72
2023/06/14 00:18:01;;;;;;;10.13;5.28;;;;;;;;;;4990538;28;20497;-73
2023/06/14 00:20:32;;;;;;;11.82;5.13;;;;;;;;;;4990955;28;20034;-73
2023/06/14 00:23:01;;;;;;;9.38;4.53;;;;;;;;;;4989078;28;20037;-72
2023/06/14 00:25:27;;;;;;;11.73;4.97;;;;;;;;;;4991215;28;20038;-73
2023/06/14 00:27:54;;;;;;;14.57;5.15;;;;;;;;;;4990496;28;20026;-72
2023/06/14 00:30:20;;;;;;;10.13;4.82;;;;;;;;;;4993533;28;20054;-73
2023/06/14 00:32:46;;;;;;;9.70;4.80;;;;;;;;;;4990814;28;20385;-72
2023/06/14 00:35:12;;;;;;;8.05;4.10;;;;;;;;;;4990674;28;20030;-72
2023/06/14 00:37:38;;;;;;;5.57;4.00;;;;;;;;;;4990575;28;20412;-73
2023/06/14 00:40:06;;;;;;;6.82;4.13;;;;;;;;;;4989808;28;20037;-72
2023/06/14 00:42:32;;;;;;;9.30;4.57;;;;;;;;;;4989075;28;20038;-73
2023/06/14 00:44:59;;;;;;;8.77;4.50;;;;;;;;;;4994665;28;20487;-73
2023/06/14 00:47:26;;;;;;;12.15;5.10;;;;;;;;;;4970394;28;20035;-73
2023/06/14 00:49:53;;;;;;;10.75;4.78;;;;;;;;;;4981668;28;20026;-72
2023/06/14 00:52:20;;;;;;;7.55;4.60;;;;;;;;;;4991975;28;20474;-73
2023/06/14 00:54:46;;;;;;;6.50;4.00;;;;;;;;;;4993066;28;20030;-73
2023/06/14 00:57:13;;;;;;;8.65;4.97;;;;;;;;;;4991336;28;20046;-73
2023/06/14 00:59:44;;;;;;;6.13;4.72;;;;;;;;;;4993084;28;20472;-72
2023/06/14 01:02:11;;;;;;;6.07;3.97;;;;;;;;;;4993009;28;20042;-73
2023/06/14 01:04:39;;;;;;;5.88;4.22;;;;;;;;;;4991754;28;20030;-73
2023/06/14 01:07:14;;;;;;;8.80;4.60;;;;;;;;;;4975117;28;20046;-73
2023/06/14 01:09:45;;;;;;;10.77;5.38;;;;;;;;;;4991512;28;20105;-74
2023/06/14 01:12:29;;;;;;;8.65;5.45;;;;;;;;;;4991552;28;20035;-73
2023/06/14 01:14:57;;;;;;;8.13;5.32;;;;;;;;;;4991474;28;20034;-72
2023/06/14 01:17:23;;;;;;;9.13;5.43;;;;;;;;;;4990994;28;20030;-73
2023/06/14 01:19:57;;;;;;;9.85;5.30;;;;;;;;;;4999469;28;20026;-72
2023/06/14 01:22:27;;;;;;;13.18;6.30;;;;;;;;;;4992067;28;20042;-72
2023/06/14 01:24:57;;;;;;;12.10;7.15;;;;;;;;;;4992384;28;20420;-73
2023/06/14 01:27:32;;;;;;;11.30;7.72;;;;;;;;;;4991006;28;20121;-72
2023/06/14 01:29:59;;;;;;;11.95;7.40;;;;;;;;;;4991212;28;20065;-72
2023/06/14 01:32:27;;;;;;;10.85;7.40;;;;;;;;;;4990586;28;20062;-73
2023/06/14 01:34:54;;;;;;;10.25;7.43;;;;;;;;;;4997851;28;20038;-73
2023/06/14 01:37:21;;;;;;;9.48;6.63;;;;;;;;;;4990854;28;20029;-72
2023/06/14 01:39:49;;;;;;;11.68;7.72;;;;;;;;;;4992528;28;20080;-73
2023/06/14 01:42:19;;;;;;;8.20;6.53;;;;;;;;;;4991317;28;20495;-73
2023/06/14 01:44:46;;;;;;;9.30;7.45;;;;;;;;;;4991302;28;20113;-72
2023/06/14 01:47:12;;;;;;;10.50;7.63;;;;;;;;;;4990730;28;20030;-72
2023/06/14 01:49:38;;;;;;;10.38;7.22;;;;;;;;;;4992335;28;20118;-72
2023/06/14 01:52:05;;;;;;;10.52;6.70;;;;;;;;;;4992357;28;20034;-73
2023/06/14 01:54:31;;;;;;;9.98;7.18;;;;;;;;;;4992562;28;20054;-72
2023/06/14 01:56:57;;;;;;;10.07;7.00;;;;;;;;;;4990815;28;20069;-73
2023/06/14 01:59:23;;;;;;;10.20;6.55;;;;;;;;;;4991162;28;20607;-73
2023/06/14 02:01:48;;;;;;;13.98;7.07;;;;;;;;;;4990833;28;20030;-73
2023/06/14 02:04:14;;;;;;;10.82;7.03;;;;;;;;;;4990876;28;20054;-73
2023/06/14 02:06:40;;;;;;;11.38;8.77;;;;;;;;;;4992222;28;20109;-73
2023/06/14 02:09:05;;;;;;;11.75;9.48;;;;;;;;;;4990833;28;20035;-74
2023/06/14 02:11:31;;;;;;;11.45;7.50;;;;;;;;;;4992092;28;20030;-73
2023/06/14 02:13:59;;;;;;;11.48;7.82;;;;;;;;;;4992987;28;20038;-74
2023/06/14 02:16:27;;;;;;;10.43;7.70;;;;;;;;;;4992018;28;20026;-73
2023/06/14 02:18:53;;;;;;;10.25;7.88;;;;;;;;;;4990371;28;20049;-73
2023/06/14 02:21:19;;;;;;;10.68;6.00;;;;;;;;;;4992075;28;20027;-72
2023/06/14 02:23:45;;;;;;;16.13;5.85;;;;;;;;;;4992164;28;20109;-72
2023/06/14 02:26:11;;;;;;;10.07;5.32;;;;;;;;;;4990237;28;20109;-72
2023/06/14 02:28:37;;;;;;;8.38;5.28;;;;;;;;;;4988899;28;20042;-72
2023/06/14 02:31:02;;;;;;;10.05;5.38;;;;;;;;;;4991632;28;20057;-72
2023/06/14 02:33:28;;;;;;;8.50;5.05;;;;;;;;;;4987749;28;20430;-72
2023/06/14 02:35:54;;;;;;;9.43;5.45;;;;;;;;;;4988934;28;20500;-72
2023/06/14 02:38:20;;;;;;;14.32;6.47;;;;;;;;;;4992406;28;20130;-74
2023/06/14 02:40:49;;;;;;;11.07;6.35;;;;;;;;;;4994008;28;20038;-72
2023/06/14 02:43:17;;;;;;;12.35;6.10;;;;;;;;;;4991969;28;20034;-73
2023/06/14 02:45:43;;;;;;;8.75;5.70;;;;;;;;;;4996850;28;20480;-74
2023/06/14 02:48:09;;;;;;;14.05;7.78;;;;;;;;;;4992960;28;20031;-73
2023/06/14 02:50:35;;;;;;;19.92;7.93;;;;;;;;;;4992898;28;20080;-74
2023/06/14 02:53:02;;;;;;;12.35;8.00;;;;;;;;;;4991496;28;20035;-72
2023/06/14 02:55:28;;;;;;;14.07;7.68;;;;;;;;;;4991507;28;20182;-73
2023/06/14 02:57:54;;;;;;;11.55;8.27;;;;;;;;;;4991790;28;20034;-72
2023/06/14 03:00:20;;;;;;;14.63;9.00;;;;;;;;;;4993296;28;20040;-73
2023/06/14 03:02:47;;;;;;;11.93;7.97;;;;;;;;;;4993777;28;20523;-73
2023/06/14 03:05:14;;;;;;;14.07;9.38;;;;;;;;;;4994036;28;20026;-73
2023/06/14 03:07:40;;;;;;;17.00;9.88;;;;;;;;;;4992670;28;20118;-72
2023/06/14 03:10:10;;;;;;;17.40;8.95;;;;;;;;;;4994821;28;20450;-73
2023/06/14 03:12:41;;;;;;;16.20;10.20;;;;;;;;;;4993690;28;20092;-73
2023/06/14 03:15:10;;;;;;;13.27;10.05;;;;;;;;;;4993732;28;20033;-73
2023/06/14 03:17:44;;;;;;;16.55;9.48;;;;;;;;;;4993329;28;20145;-72
2023/06/14 03:20:10;;;;;;;13.07;9.50;;;;;;;;;;4994249;28;20042;-73
2023/06/14 03:22:37;;;;;;;11.48;9.23;;;;;;;;;;4999399;28;20181;-72
2023/06/14 03:25:04;;;;;;;14.85;8.82;;;;;;;;;;4977898;28;20034;-73
2023/06/14 03:27:32;;;;;;;14.82;8.55;;;;;;;;;;4993281;28;20030;-72
2023/06/14 03:29:59;;;;;;;17.20;8.20;;;;;;;;;;4993434;28;20034;-72
2023/06/14 03:32:25;;;;;;;16.65;7.57;;;;;;;;;;4992640;28;20088;-72
2023/06/14 03:34:51;;;;;;;12.65;7.50;;;;;;;;;;4991585;28;20493;-73
2023/06/14 03:37:20;;;;;;;12.45;6.60;;;;;;;;;;4991627;28;20024;-73
2023/06/14 03:39:47;;;;;;;9.18;6.47;;;;;;;;;;4991564;28;20081;-74
2023/06/14 03:42:17;;;;;;;11.32;6.57;;;;;;;;;;4990015;28;20568;-73
2023/06/14 03:44:44;;;;;;;15.27;7.57;;;;;;;;;;4992327;28;20492;-72
2023/06/14 03:47:10;;;;;;;15.40;7.15;;;;;;;;;;4992886;28;20038;-72
2023/06/14 03:49:36;;;;;;;12.60;7.65;;;;;;;;;;4992202;28;20038;-72
2023/06/14 03:52:03;;;;;;;15.30;7.18;;;;;;;;;;4994140;28;20526;-72
2023/06/14 03:54:32;;;;;;;20.33;8.57;;;;;;;;;;4992957;28;20054;-72
2023/06/14 03:56:59;;;;;;;17.10;8.23;;;;;;;;;;4992983;28;20105;-72
2023/06/14 03:59:25;;;;;;;13.02;7.55;;;;;;;;;;4993095;28;20054;-73
2023/06/14 04:01:53;;;;;;;21.48;7.18;;;;;;;;;;4993004;28;20109;-72
2023/06/14 04:04:21;;;;;;;15.70;7.10;;;;;;;;;;4992956;28;20089;-71
2023/06/14 04:06:48;;;;;;;10.07;6.05;;;;;;;;;;4992630;28;20026;-72
2023/06/14 04:09:14;;;;;;;13.57;6.50;;;;;;;;;;4992569;28;20042;-73
2023/06/14 04:11:40;;;;;;;19.08;6.90;;;;;;;;;;4992787;28;20030;-72
2023/06/14 04:14:06;;;;;;;18.95;7.70;;;;;;;;;;4992638;28;20056;-72
2023/06/14 04:16:33;;;;;;;15.02;6.85;;;;;;;;;;4992306;28;20053;-73
2023/06/14 04:19:00;;;;;;;12.13;6.60;;;;;;;;;;4991809;28;20381;-72
2023/06/14 04:21:28;;;;;;;14.05;8.02;;;;;;;;;;4989270;28;20078;-71
2023/06/14 04:23:56;;;;;;;11.35;6.70;;;;;;;;;;4991799;28;20049;-72
2023/06/14 04:26:29;;;;;;;13.07;7.47;;;;;;;;;;4991941;28;20129;-72
2023/06/14 04:28:56;;;;;;;10.68;7.40;;;;;;;;;;4991853;28;20113;-72
2023/06/14 04:31:26;;;;;;;12.60;7.03;;;;;;;;;;4990842;28;20480;-74
2023/06/14 04:33:53;;;;;;;12.20;6.93;;;;;;;;;;4991784;28;20464;-72
2023/06/14 04:36:21;;;;;;;13.88;7.05;;;;;;;;;;4991105;28;20030;-72
2023/06/14 04:38:53;;;;;;;17.42;7.13;;;;;;;;;;4990892;28;20030;-72
2023/06/14 04:41:22;;;;;;;17.73;7.67;;;;;;;;;;4991058;28;20041;-72
2023/06/14 04:43:49;;;;;;;8.63;6.60;;;;;;;;;;4991097;28;20033;-72
2023/06/14 04:46:17;;;;;;;14.13;7.00;;;;;;;;;;4990842;28;20061;-72
2023/06/14 04:48:42;;;;;;;14.35;6.65;;;;;;;;;;4990904;28;20559;-73
2023/06/14 04:51:13;;;;;;;12.52;6.53;;;;;;;;;;4991124;28;20456;-72
2023/06/14 04:53:38;;;;;;;12.18;6.28;;;;;;;;;;4992296;28;20133;-72
2023/06/14 04:56:04;;;;;;;9.32;5.93;;;;;;;;;;4989168;28;20556;-72
2023/06/14 04:58:32;;;;;;;15.90;7.10;;;;;;;;;;4989845;28;20428;-72
2023/06/14 05:01:02;;;;;;;17.75;7.13;;;;;;;;;;4966254;28;20511;-71
2023/06/14 05:03:30;;;;;;;16.13;7.88;;;;;;;;;;4987779;28;20031;-72
2023/06/14 05:05:56;;;;;;;15.00;7.57;;;;;;;;;;4992300;28;20019;-72
2023/06/14 05:08:23;;;;;;;16.10;6.80;;;;;;;;;;4990712;28;20096;-72
2023/06/14 05:10:50;;;;;;;17.00;6.63;;;;;;;;;;4990165;28;20019;-73
2023/06/14 05:13:17;;;;;;;12.80;6.75;;;;;;;;;;4989740;28;20508;-72
2023/06/14 05:15:44;;;;;;;12.38;6.13;;;;;;;;;;4990416;28;20084;-71
2023/06/14 05:18:10;;;;;;;11.02;5.88;;;;;;;;;;4990884;28;20583;-71
2023/06/14 05:20:37;;;;;;;11.98;6.35;;;;;;;;;;4992080;28;20036;-71
2023/06/14 05:23:03;;;;;;;23.02;6.22;;;;;;;;;;4990236;28;20037;-72
2023/06/14 05:25:29;;;;;;;7.88;5.10;;;;;;;;;;4973809;28;20027;-72
2023/06/14 05:27:54;;;;;;;7.85;4.70;;;;;;;;;;4991633;28;20489;-71
2023/06/14 05:30:20;;;;;;;10.75;4.60;;;;;;;;;;4992467;28;20159;-72
2023/06/14 05:32:46;;;;;;;11.48;4.63;;;;;;;;;;4991408;28;20041;-72
2023/06/14 05:35:11;;;;;;;7.13;5.20;;;;;;;;;;4991045;28;20116;-72
2023/06/14 05:37:37;;;;;;;8.18;4.57;;;;;;;;;;4991476;28;20034;-71
2023/06/14 05:40:08;;;;;;;10.32;5.57;;;;;;;;;;4991525;28;20025;-72
2023/06/14 05:42:34;;;;;;;10.52;4.50;;;;;;;;;;4990269;28;20060;-72
2023/06/14 05:45:00;;;;;;;14.77;5.47;;;;;;;;;;4991629;28;20389;-71
2023/06/14 05:47:27;;;;;;;7.70;4.40;;;;;;;;;;4991402;28;20041;-72
2023/06/14 05:49:54;;;;;;;9.27;4.30;;;;;;;;;;4989841;28;20030;-71
2023/06/14 05:52:20;;;;;;;15.48;4.57;;;;;;;;;;4991416;28;20121;-71
2023/06/14 05:54:47;;;;;;;8.05;4.00;;;;;;;;;;4991339;28;20127;-72
2023/06/14 05:57:13;;;;;;;8.00;3.33;;;;;;;;;;4991338;28;20062;-71
2023/06/14 05:59:39;;;;;;;6.80;3.85;;;;;;;;;;4990425;28;20110;-71
2023/06/14 06:02:05;;;;;;;8.80;4.80;;;;;;;;;;4990424;28;20044;-71
2023/06/14 06:04:32;;;;;;;12.18;4.60;;;;;;;;;;4989780;28;20027;-72
2023/06/14 06:06:58;;;;;;;7.82;4.10;;;;;;;;;;4990653;28;20030;-72
2023/06/14 06:09:24;;;;;;;14.10;4.50;;;;;;;;;;4990997;28;20030;-72
2023/06/14 06:11:51;;;;;;;8.77;4.50;;;;;;;;;;4991955;28;20030;-72
2023/06/14 06:14:17;;;;;;;11.73;4.30;;;;;;;;;;4995672;28;20022;-73
2023/06/14 06:16:43;;;;;;;10.70;3.70;;;;;;;;;;4995718;28;20121;-72
2023/06/14 06:19:09;;;;;;;7.80;3.85;;;;;;;;;;4995367;28;20519;-73
2023/06/14 06:21:35;;;;;;;5.88;3.58;;;;;;;;;;4994397;28;20034;-74
2023/06/14 06:24:05;;;;;;;5.80;3.50;;;;;;;;;;4994769;28;20042;-72
2023/06/14 06:26:32;;;;;;;6.72;3.65;;;;;;;;;;4995407;28;20450;-71
2023/06/14 06:28:59;;;;;;;7.35;3.78;;;;;;;;;;4994306;28;20180;-72
2023/06/14 06:31:27;;;;;;;7.90;3.90;;;;;;;;;;4978418;28;20038;-72
2023/06/14 06:33:54;;;;;;;7.95;4.00;;;;;;;;;;4994854;28;20392;-73
2023/06/14 06:36:21;;;;;;;8.00;3.90;;;;;;;;;;4994889;28;20595;-72
2023/06/14 06:38:49;;;;;;;11.13;4.22;;;;;;;;;;4995558;28;20109;-72
2023/06/14 06:41:14;;;;;;;8.65;4.05;;;;;;;;;;4995643;28;20054;-72
2023/06/14 06:43:43;;;;;;;11.75;4.38;;;;;;;;;;4994686;28;20030;-73
2023/06/14 06:46:09;;;;;;;5.95;3.80;;;;;;;;;;4994172;28;20066;-73
2023/06/14 06:48:36;;;;;;;7.93;4.28;;;;;;;;;;4993842;28;20137;-74
2023/06/14 06:51:02;;;;;;;5.78;3.50;;;;;;;;;;4994085;28;20058;-74
2023/06/14 06:53:27;;;;;;;10.73;4.60;;;;;;;;;;4993607;28;20500;-72
2023/06/14 06:55:55;;;;;;;12.57;3.92;;;;;;;;;;4995484;28;20031;-71
2023/06/14 06:58:22;;;;;;;15.63;4.38;;;;;;;;;;4995133;28;20043;-71
2023/06/14 07:00:47;;;;;;;7.28;3.53;;;;;;;;;;4996396;28;20038;-71
2023/06/14 07:03:14;;;;;;;6.63;3.58;;;;;;;;;;4977714;28;20113;-72
2023/06/14 07:05:40;;;;;;;8.05;4.38;;;;;;;;;;4994983;28;20054;-73
2023/06/14 07:08:05;;;;;;;8.20;3.38;;;;;;;;;;4995079;28;20456;-72
2023/06/14 07:10:34;;;;;;;11.20;2.92;;;;;;;;;;4992455;28;20041;-74
2023/06/14 07:13:00;;;;;;;6.28;3.38;;;;;;;;;;4992755;28;20031;-70
2023/06/14 07:15:26;;;;;;;7.63;3.65;;;;;;;;;;4994322;28;20026;-72
2023/06/14 07:17:52;;;;;;;7.53;3.08;;;;;;;;;;4994758;28;20038;-73
2023/06/14 07:20:18;;;;;;;7.78;4.10;;;;;;;;;;4994739;28;20038;-72
2023/06/14 07:22:44;;;;;;;7.40;3.15;;;;;;;;;;4993475;28;20347;-71
2023/06/14 07:25:14;;;;;;;5.90;3.20;;;;;;;;;;4993188;28;20038;-71
2023/06/14 07:27:41;;;;;;;6.82;3.20;;;;;;;;;;4995387;28;20041;-74
2023/06/14 07:30:08;;;;;;;6.50;3.42;;;;;;;;;;4994233;28;20042;-72
2023/06/14 07:32:34;;;;;;;8.73;3.83;;;;;;;;;;4994798;28;20018;-73
2023/06/14 07:35:03;;;;;;;5.18;3.20;;;;;;;;;;4995930;28;20034;-74
2023/06/14 07:37:29;;;;;;;6.07;3.63;;;;;;;;;;4993847;28;20392;-73
2023/06/14 07:39:54;;;;;;;6.68;3.50;;;;;;;;;;4995138;28;20048;-72
2023/06/14 07:42:20;;;;;;;11.20;3.80;;;;;;;;;;4995189;28;20032;-72
2023/06/14 07:44:47;;;;;;;6.30;2.97;;;;;;;;;;4994857;28;20484;-72
2023/06/14 07:47:13;;;;;;;11.40;3.42;;;;;;;;;;4992278;28;20029;-73
2023/06/14 07:49:40;;;;;;;5.18;2.67;;;;;;;;;;4994210;28;20507;-74
2023/06/14 07:52:06;;;;;;;6.47;2.78;;;;;;;;;;4993458;28;20072;-74
2023/06/14 07:54:32;;;;;;;6.00;2.70;;;;;;;;;;4994032;28;20420;-73
2023/06/14 07:57:00;;;;;;;4.13;2.65;;;;;;;;;;4993366;28;20026;-73
2023/06/14 07:59:27;;;;;;;6.82;2.75;;;;;;;;;;4992333;28;20034;-71
2023/06/14 08:01:52;;;;;;;7.88;3.67;;;;;;;;;;4993604;28;20045;-72
2023/06/14 08:04:18;;;;;;;6.47;3.50;;;;;;;;;;4992204;28;20034;-72
2023/06/14 08:06:45;;;;;;;6.20;3.05;;;;;;;;;;4992935;28;20038;-72
2023/06/14 08:09:12;;;;;;;6.70;3.33;;;;;;;;;;4993575;28;20046;-72
2023/06/14 08:11:38;;;;;;;7.70;3.13;;;;;;;;;;4993758;28;20044;-73
2023/06/14 08:14:04;;;;;;;8.10;3.17;;;;;;;;;;4993598;28;20472;-73
2023/06/14 08:16:31;;;;;;;5.47;3.03;;;;;;;;;;4992892;28;20359;-71
2023/06/14 08:18:58;;;;;;;5.15;2.60;;;;;;;;;;4993484;28;20550;-72
2023/06/14 08:21:26;;;;;;;4.60;2.60;;;;;;;;;;4993235;28;20030;-72
2023/06/14 08:23:52;;;;;;;6.18;3.00;;;;;;;;;;4993366;28;20030;-71
2023/06/14 08:26:19;;;;;;;6.85;3.17;;;;;;;;;;4993394;28;20072;-72
2023/06/14 08:28:45;;;;;;;3.97;3.08;;;;;;;;;;4991677;28;20484;-71
2023/06/14 08:31:11;;;;;;;10.43;3.13;;;;;;;;;;4992518;28;20034;-71
2023/06/14 08:33:37;;;;;;;5.35;2.90;;;;;;;;;;4992132;28;20138;-71
2023/06/14 08:36:03;;;;;;;6.38;3.05;;;;;;;;;;4991703;28;20026;-71
2023/06/14 08:38:28;;;;;;;7.32;3.40;;;;;;;;;;4992885;28;20050;-73
2023/06/14 08:40:58;;;;;;;6.60;2.70;;;;;;;;;;4993203;28;20030;-72
2023/06/14 08:43:24;;;;;;;7.82;3.38;;;;;;;;;;4992536;28;20081;-72
2023/06/14 08:45:57;;;;;;;4.88;2.80;;;;;;;;;;4992754;28;20526;-72
2023/06/14 08:48:26;;;;;;;8.35;3.50;;;;;;;;;;4993079;28;20057;-73
2023/06/14 08:51:01;;;;;;;13.60;5.07;;;;;;;;;;4992851;28;20026;-72
2023/06/14 08:53:33;;;;;;;5.88;2.80;;;;;;;;;;4992710;28;20034;-71
2023/06/14 08:56:04;;;;;;;16.17;5.65;;;;;;;;;;4992416;28;20034;-72
2023/06/14 08:58:34;;;;;;;7.68;2.78;;;;;;;;;;4992265;28;20503;-72
2023/06/14 09:01:03;;;;;;;6.03;3.03;;;;;;;;;;4993158;28;20049;-73
2023/06/14 09:03:32;;;;;;;7.63;3.10;;;;;;;;;;4991944;28;20085;-72
2023/06/14 09:06:01;;;;;;;7.50;2.90;;;;;;;;;;4991424;28;20100;-72
2023/06/14 09:08:31;;;;;;;6.57;2.90;;;;;;;;;;4992120;28;20491;-72
2023/06/14 09:11:00;;;;;;;3.58;2.55;;;;;;;;;;4992735;28;20038;-71
2023/06/14 09:13:27;;;;;;;6.18;2.90;;;;;;;;;;4992363;28;20022;-71
2023/06/14 09:15:53;;;;;;;6.40;2.65;;;;;;;;;;4991047;28;20054;-73
2023/06/14 09:18:20;;;;;;;4.40;2.20;;;;;;;;;;4992215;28;20400;-73
2023/06/14 09:20:47;;;;;;;4.35;2.40;;;;;;;;;;4992107;28;20038;-72
2023/06/14 09:23:13;;;;;;;7.22;2.85;;;;;;;;;;4992446;28;20046;-71
2023/06/14 09:25:45;;;;;;;7.03;2.70;;;;;;;;;;4992682;28;20073;-73
2023/06/14 09:28:11;;;;;;;4.30;2.47;;;;;;;;;;4992847;28;20205;-72
2023/06/14 09:30:39;;;;;;;4.40;2.53;;;;;;;;;;4992437;28;20334;-75
2023/06/14 09:33:09;;;;;;;4.32;2.50;;;;;;;;;;4992118;28;20052;-75
2023/06/14 09:35:35;;;;;;;5.03;2.50;;;;;;;;;;4989770;28;20461;-72
2023/06/14 09:38:01;;;;;;;3.55;2.63;;;;;;;;;;4986417;28;20547;-75
2023/06/14 09:40:28;;;;;;;6.00;2.80;;;;;;;;;;4992372;28;20026;-75
2023/06/14 09:42:57;;;;;;;5.00;2.70;;;;;;;;;;4992142;28;20042;-75
2023/06/14 09:45:23;;;;;;;6.00;2.78;;;;;;;;;;4990855;28;20508;-73
2023/06/14 09:47:51;;;;;;;7.55;2.97;;;;;;;;;;4992038;28;20188;-72
2023/06/14 09:50:18;;;;;;;4.20;2.60;;;;;;;;;;4991944;28;20042;-75
2023/06/14 09:52:45;;;;;;;4.15;2.55;;;;;;;;;;4992338;28;20523;-74
2023/06/14 09:55:15;;;;;;;6.05;2.75;;;;;;;;;;4992396;28;20495;-74
2023/06/14 09:57:45;;;;;;;4.43;2.40;;;;;;;;;;4990512;28;20039;-73
2023/06/14 10:00:13;;;;;;;5.93;2.70;;;;;;;;;;4992116;28;20074;-73
2023/06/14 10:02:47;;;;;;;4.97;2.60;;;;;;;;;;4990344;28;20440;-73
2023/06/14 10:05:17;;;;;;;7.22;2.80;;;;;;;;;;4991782;28;20035;-75
2023/06/14 10:08:07;;;;;;;4.13;2.75;;;;;;;;;;4990434;28;20133;-72
2023/06/14 10:10:34;;;;;;;5.10;2.70;;;;;;;;;;4991899;28;20038;-75
2023/06/14 10:13:00;;;;;;;3.63;2.33;;;;;;;;;;4990633;28;20066;-74
2023/06/14 10:15:41;;;;;;;6.88;2.40;;;;;;;;;;4990735;28;20354;-75
2023/06/14 10:18:35;;;;;;;7.22;2.60;;;;;;;;;;4991868;28;20046;-75
2023/06/14 10:21:31;;;;;;;4.50;2.30;;;;;;;;;;4992432;28;20080;-75
2023/06/14 10:24:03;;;;;;;7.25;2.67;;;;;;;;;;4991740;28;20042;-73
2023/06/14 10:26:30;;;;;;;4.15;2.45;;;;;;;;;;4992189;28;20033;-75
2023/06/14 10:29:06;;;;;;;4.07;2.20;;;;;;;;;;4990763;28;20026;-73
2023/06/14 10:31:50;;;;;;;6.22;2.53;;;;;;;;;;4992215;28;20030;-75
2023/06/14 10:34:24;;;;;;;3.92;2.70;;;;;;;;;;4992161;28;20034;-74
2023/06/14 10:37:07;;;;;;;4.45;2.65;;;;;;;;;;4992150;28;20480;-74
2023/06/14 10:39:41;;;;;;;4.22;2.47;;;;;;;;;;4991934;28;20049;-73
2023/06/14 10:42:07;;;;;;;8.43;3.28;;;;;;;;;;4992480;28;20412;-73
2023/06/14 10:44:49;;;;;;;6.55;2.60;;;;;;;;;;4992038;28;20026;-74
2023/06/14 10:47:23;;;;;;;3.30;2.35;;;;;;;;;;4998880;28;20046;-73
2023/06/14 10:49:56;;;;;;;3.95;2.13;;;;;;;;;;5002296;28;20042;-74
2023/06/14 10:52:28;;;;;;;6.10;2.38;;;;;;;;;;4996976;28;20413;-73
2023/06/14 10:55:14;;;;;;;5.13;2.50;;;;;;;;;;4990727;28;20069;-74
2023/06/14 10:57:50;;;;;;;3.00;2.08;;;;;;;;;;4993199;28;20508;-75
2023/06/14 11:00:31;;;;;;;3.63;2.10;;;;;;;;;;4994625;28;20429;-74
2023/06/14 11:03:23;;;;;;;6.38;2.50;;;;;;;;;;4992849;28;20060;-74
2023/06/14 11:05:53;;;;;;;4.97;2.53;;;;;;;;;;4995237;28;20057;-74
2023/06/14 11:08:40;;;;;;;3.20;2.13;;;;;;;;;;4994911;28;20034;-74
2023/06/14 11:11:09;;;;;;;6.70;2.45;;;;;;;;;;4995226;28;20042;-73
2023/06/14 11:13:38;;;;;;;4.25;2.85;;;;;;;;;;4995423;28;20370;-73
2023/06/14 11:16:11;;;;;;;4.50;2.78;;;;;;;;;;4993386;28;20173;-74
2023/06/14 11:18:37;;;;;;;4.82;2.60;;;;;;;;;;4994453;28;20112;-76
2023/06/14 11:21:04;;;;;;;3.38;2.33;;;;;;;;;;4996690;28;20081;-74
2023/06/14 11:23:33;;;;;;;3.78;2.47;;;;;;;;;;4995345;28;20030;-74
2023/06/14 11:25:59;;;;;;;5.00;2.60;;;;;;;;;;4993164;28;20033;-73
2023/06/14 11:28:36;;;;;;;8.27;3.10;;;;;;;;;;4994113;28;20049;-73
2023/06/14 11:31:03;;;;;;;6.22;3.00;;;;;;;;;;4995027;28;20065;-73
2023/06/14 11:33:30;;;;;;;4.07;2.13;;;;;;;;;;4994295;28;20061;-73
2023/06/14 11:35:56;;;;;;;4.05;2.35;;;;;;;;;;4994673;28;20031;-74
2023/06/14 11:38:22;;;;;;;5.15;3.05;;;;;;;;;;4993794;28;20642;-73
2023/06/14 11:40:47;;;;;;;4.80;2.50;;;;;;;;;;4987516;28;20500;-74
2023/06/14 11:43:14;;;;;;;4.90;2.35;;;;;;;;;;4986112;28;20038;-72
2023/06/14 11:45:39;;;;;;;5.82;2.33;;;;;;;;;;4998256;28;20048;-73
2023/06/14 11:48:06;;;;;;;5.28;2.80;;;;;;;;;;4993981;28;20145;-72
2023/06/14 11:50:33;;;;;;;4.30;2.25;;;;;;;;;;4994282;28;20531;-73
2023/06/14 11:53:03;;;;;;;6.00;2.50;;;;;;;;;;4994402;28;20527;-72
2023/06/14 11:55:29;;;;;;;5.00;2.55;;;;;;;;;;4993861;28;20042;-71
2023/06/14 11:57:56;;;;;;;6.80;2.60;;;;;;;;;;4994237;28;20029;-73
2023/06/14 12:00:30;;;;;;;3.40;2.50;;;;;;;;;;4995239;28;20446;-71
2023/06/14 12:02:57;;;;;;;4.25;2.30;;;;;;;;;;4995426;28;20073;-75
2023/06/14 12:05:23;;;;;;;4.35;2.83;;;;;;;;;;4998545;28;20078;-72
2023/06/14 12:07:50;;;;;;;4.82;2.50;;;;;;;;;;4995821;28;20102;-73
2023/06/14 12:10:16;;;;;;;5.80;2.75;;;;;;;;;;4977210;28;20384;-72
2023/06/14 12:12:42;;;;;;;4.50;2.28;;;;;;;;;;4993931;28;20034;-72
2023/06/14 12:15:12;;;;;;;4.45;2.65;;;;;;;;;;4993076;28;20093;-73
2023/06/14 12:17:42;;;;;;;4.65;2.40;;;;;;;;;;4992471;28;20041;-74
2023/06/14 12:20:16;;;;;;;6.90;2.97;;;;;;;;;;4993616;28;20081;-73
2023/06/14 12:22:52;;;;;;;3.72;2.50;;;;;;;;;;4990878;28;20022;-72
2023/06/14 12:25:28;;;;;;;4.43;2.17;;;;;;;;;;4988942;28;20031;-72
2023/06/14 12:27:58;;;;;;;4.63;2.42;;;;;;;;;;4993166;28;20109;-72
2023/06/14 12:30:24;;;;;;;2.60;2.10;;;;;;;;;;4993507;28;20595;-73
2023/06/14 12:32:51;;;;;;;7.53;2.75;;;;;;;;;;4990890;28;20042;-73
2023/06/14 12:35:18;;;;;;;4.63;2.70;;;;;;;;;;4992730;28;20123;-73
2023/06/14 12:37:45;;;;;;;6.03;2.25;;;;;;;;;;4993794;28;20037;-73
2023/06/14 12:40:13;;;;;;;3.33;2.33;;;;;;;;;;4993745;28;20411;-73
2023/06/14 12:42:40;;;;;;;3.45;2.50;;;;;;;;;;4992343;28;20034;-72
2023/06/14 12:45:06;;;;;;;3.80;2.50;;;;;;;;;;4993175;28;20030;-74
2023/06/14 12:47:32;;;;;;;3.75;2.33;;;;;;;;;;4992636;28;20041;-74
2023/06/14 12:49:58;;;;;;;6.28;2.75;;;;;;;;;;4992089;28;20120;-73
2023/06/14 12:52:24;;;;;;;6.05;3.13;;;;;;;;;;4975680;28;20469;-72
2023/06/14 12:54:50;;;;;;;7.95;3.63;;;;;;;;;;4992935;28;20084;-73
2023/06/14 12:57:15;;;;;;;4.68;2.30;;;;;;;;;;4992718;28;20053;-73
2023/06/14 12:59:41;;;;;;;8.00;2.38;;;;;;;;;;4992885;28;20026;-74
2023/06/14 13:02:15;;;;;;;5.50;2.05;;;;;;;;;;4973580;28;20464;-74
2023/06/14 13:04:41;;;;;;;5.43;2.38;;;;;;;;;;4997278;28;20058;-73
2023/06/14 13:07:08;;;;;;;3.75;2.13;;;;;;;;;;4988911;28;20499;-74
2023/06/14 13:09:34;;;;;;;4.40;2.22;;;;;;;;;;4989602;28;20054;-74
2023/06/14 13:12:01;;;;;;;4.88;2.55;;;;;;;;;;4990263;28;20062;-72
2023/06/14 13:14:28;;;;;;;3.08;2.20;;;;;;;;;;4990017;28;20129;-74
2023/06/14 13:16:55;;;;;;;3.45;2.60;;;;;;;;;;4990741;28;20161;-75
2023/06/14 13:19:21;;;;;;;4.07;2.47;;;;;;;;;;4989648;28;20042;-75
2023/06/14 13:21:48;;;;;;;3.50;2.03;;;;;;;;;;4999239;28;20033;-75
2023/06/14 13:24:14;;;;;;;3.78;2.20;;;;;;;;;;5011945;28;20041;-73
2023/06/14 13:26:41;;;;;;;4.25;2.35;;;;;;;;;;5012427;28;20018;-73
2023/06/14 13:29:07;;;;;;;3.53;2.13;;;;;;;;;;5010258;28;20045;-73
2023/06/14 13:31:33;;;;;;;4.90;2.20;;;;;;;;;;5012553;28;20033;-75
2023/06/14 13:33:59;;;;;;;5.07;2.55;;;;;;;;;;5011247;28;20056;-74
2023/06/14 13:36:26;;;;;;;3.28;2.08;;;;;;;;;;5012264;28;20100;-72
2023/06/14 13:38:54;;;;;;;6.43;2.45;;;;;;;;;;5011833;28;20564;-74
2023/06/14 13:41:21;;;;;;;4.10;2.30;;;;;;;;;;5011588;28;20388;-73
2023/06/14 13:43:48;;;;;;;5.50;2.40;;;;;;;;;;5011329;28;20128;-75
2023/06/14 13:46:14;;;;;;;5.43;2.22;;;;;;;;;;5011766;28;20030;-73
2023/06/14 13:48:39;;;;;;;4.68;2.47;;;;;;;;;;5010957;28;20034;-74
2023/06/14 13:51:05;;;;;;;4.53;2.28;;;;;;;;;;5011634;28;20076;-72
2023/06/14 13:53:31;;;;;;;4.32;2.28;;;;;;;;;;5011499;28;20036;-72
2023/06/14 13:55:58;;;;;;;4.25;2.40;;;;;;;;;;5003189;28;20042;-73
2023/06/14 13:58:25;;;;;;;6.85;2.40;;;;;;;;;;4990633;28;20046;-74
2023/06/14 14:00:51;;;;;;;4.35;2.17;;;;;;;;;;4992266;28;20026;-75
2023/06/14 14:03:16;;;;;;;4.03;2.55;;;;;;;;;;4989466;28;20030;-73
2023/06/14 14:05:42;;;;;;;4.38;2.40;;;;;;;;;;4991164;28;20538;-73
2023/06/14 14:08:08;;;;;;;4.30;2.17;;;;;;;;;;4990902;28;20121;-73
2023/06/14 14:10:33;;;;;;;4.25;2.20;;;;;;;;;;4991498;28;20404;-75
2023/06/14 14:13:01;;;;;;;3.42;2.53;;;;;;;;;;4990799;28;20042;-75
2023/06/14 14:15:28;;;;;;;3.88;2.40;;;;;;;;;;4989128;28;20718;-75
2023/06/14 14:17:57;;;;;;;3.53;2.20;;;;;;;;;;4990262;28;20034;-72
2023/06/14 14:20:23;;;;;;;6.70;2.72;;;;;;;;;;4985184;28;20026;-74
2023/06/14 14:22:48;;;;;;;4.45;2.33;;;;;;;;;;4991913;28;20026;-75
2023/06/14 14:25:14;;;;;;;5.47;2.25;;;;;;;;;;4991397;28;20030;-74
2023/06/14 14:27:40;;;;;;;6.10;2.30;;;;;;;;;;4989750;28;20546;-74
2023/06/14 14:30:07;;;;;;;2.92;1.98;;;;;;;;;;4990476;28;20122;-75
2023/06/14 14:32:33;;;;;;;3.63;2.60;;;;;;;;;;4994526;28;20147;-75
2023/06/14 14:34:59;;;;;;;5.50;2.53;;;;;;;;;;4993855;28;20054;-75
2023/06/14 14:37:25;;;;;;;5.88;2.42;;;;;;;;;;4994865;28;20046;-73
2023/06/14 14:39:50;;;;;;;12.30;2.67;;;;;;;;;;4988882;28;20043;-73
2023/06/14 14:42:16;;;;;;;6.85;2.40;;;;;;;;;;4994752;28;20120;-74